createdAt,value
2022-08-10T00:01:54.081Z,99576.66
2022-08-10T00:04:23.865Z,99568.91
2022-08-10T00:06:55.120Z,99578.94
2022-08-10T00:09:23.569Z,99584.97
2022-08-10T00:11:51.236Z,99579.00
2022-08-10T00:14:18.330Z,99585.13
2022-08-10T00:16:45.279Z,99579.00
2022-08-10T00:19:12.307Z,99582.44
2022-08-10T00:21:39.656Z,99579.94
2022-08-10T00:24:06.701Z,99582.63
2022-08-10T00:28:00.704Z,99579.28
2022-08-10T00:29:21.083Z,99574.19
2022-08-10T00:31:55.957Z,99578.56
2022-08-10T00:34:26.965Z,99574.22
2022-08-10T00:36:53.782Z,99578.84
2022-08-10T00:39:20.826Z,99577.25
2022-08-10T00:42:06.700Z,99576.44
2022-08-10T00:44:40.311Z,99575.84
2022-08-10T00:47:36.008Z,99574.19
2022-08-10T00:49:55.283Z,99574.22
2022-08-10T00:52:24.667Z,99566.38
2022-08-10T00:54:52.954Z,99569.13
2022-08-10T00:57:20.424Z,99564.75
2022-08-10T00:59:59.571Z,99564.00
2022-08-10T01:02:32.115Z,99565.03
2022-08-10T01:05:03.372Z,99560.75
2022-08-10T01:08:21.468Z,99559.91
2022-08-10T01:12:39.594Z,99572.41
2022-08-10T01:14:17.512Z,99560.94
2022-08-10T01:16:53.796Z,99552.38
2022-08-10T01:20:05.294Z,99555.97
2022-08-10T01:22:50.544Z,99548.19
2022-08-10T01:25:36.090Z,99552.56
2022-08-10T01:28:34.854Z,99551.88
2022-08-10T01:31:04.715Z,99556.28
2022-08-10T01:33:58.811Z,99549.44
2022-08-10T01:36:39.973Z,99550.34
2022-08-10T01:39:09.338Z,99555.63
2022-08-10T01:41:46.935Z,99553.88
2022-08-10T01:44:20.025Z,99561.88
2022-08-10T01:46:56.941Z,99559.22
2022-08-10T01:49:26.991Z,99554.81
2022-08-10T01:51:56.368Z,99553.19
2022-08-10T01:54:29.741Z,99554.09
2022-08-10T01:56:58.396Z,99560.31
2022-08-10T01:59:33.007Z,99552.53
2022-08-10T02:02:06.418Z,99560.47
2022-08-10T02:04:37.548Z,99554.38
2022-08-10T02:07:08.612Z,99562.41
2022-08-10T02:09:38.493Z,99557.25
2022-08-10T02:12:09.147Z,99563.41
2022-08-10T02:14:42.027Z,99563.50
2022-08-10T02:17:59.904Z,99564.41
2022-08-10T02:20:18.324Z,99566.25
2022-08-10T02:22:49.489Z,99556.66
2022-08-10T02:25:41.810Z,99562.94
2022-08-10T02:28:07.330Z,99554.38
2022-08-10T02:30:35.204Z,99568.41
2022-08-10T02:33:03.789Z,99556.25
2022-08-10T02:35:54.376Z,99557.16
2022-08-10T02:38:58.900Z,99564.25
2022-08-10T02:45:14.004Z,99565.13
2022-08-10T02:45:19.603Z,99573.13
2022-08-10T02:47:30.334Z,99571.41
2022-08-10T02:50:28.019Z,99577.63
2022-08-10T02:53:04.273Z,99576.75
2022-08-10T02:55:39.942Z,99583.75
2022-08-10T02:58:16.708Z,99579.41
2022-08-10T03:00:49.861Z,99594.28
2022-08-10T03:03:26.487Z,99587.34
2022-08-10T03:06:09.451Z,99590.94
2022-08-10T03:08:40.953Z,99587.47
2022-08-10T03:11:13.808Z,99592.81
2022-08-10T03:13:43.215Z,99591.88
2022-08-10T03:16:10.839Z,99590.19
2022-08-10T03:18:39.102Z,99594.66
2022-08-10T03:21:11.716Z,99591.06
2022-08-10T03:23:41.542Z,99591.88
2022-08-10T03:26:09.915Z,99597.25
2022-08-10T03:28:37.328Z,99593.72
2022-08-10T03:31:04.734Z,99598.06
2022-08-10T03:33:35.594Z,99588.47
2022-08-10T03:36:43.890Z,99587.53
2022-08-10T03:38:53.662Z,99590.22
2022-08-10T03:41:26.875Z,99587.47
2022-08-10T03:43:58.554Z,99595.34
2022-08-10T03:46:28.230Z,99596.19
2022-08-10T03:48:58.071Z,99601.38
2022-08-10T03:51:28.917Z,99602.16
2022-08-10T03:54:05.459Z,99599.31
2022-08-10T03:56:36.735Z,99604.31
2022-08-10T03:59:04.486Z,99597.91
2022-08-10T04:02:44.654Z,99602.06
2022-08-10T04:04:24.117Z,99593.84
2022-08-10T04:06:54.746Z,99600.50
2022-08-10T04:09:29.820Z,99602.03
2022-08-10T04:12:15.518Z,99605.28
2022-08-10T04:14:51.144Z,99607.59
2022-08-10T04:18:04.906Z,99613.22
2022-08-10T04:20:13.792Z,99608.19
2022-08-10T04:22:43.444Z,99605.75
2022-08-10T04:25:12.666Z,99601.72
2022-08-10T04:27:39.968Z,99604.84
2022-08-10T04:30:07.516Z,99605.06
2022-08-10T04:32:36.467Z,99613.47
2022-08-10T04:35:05.668Z,99612.13
2022-08-10T04:37:34.823Z,99611.84
2022-08-10T04:40:02.413Z,99620.25
2022-08-10T04:42:29.427Z,99620.44
2022-08-10T04:44:56.269Z,99620.72
2022-08-10T04:47:57.404Z,99620.81
2022-08-10T04:50:10.481Z,99633.75
2022-08-10T04:52:37.803Z,99634.03
2022-08-10T04:55:05.250Z,99628.75
2022-08-10T04:57:32.174Z,99625.59
2022-08-10T04:59:59.346Z,99627.72
2022-08-10T05:02:31.205Z,99626.78
2022-08-10T05:04:59.447Z,99630.56
2022-08-10T05:07:26.586Z,99630.31
2022-08-10T05:10:02.311Z,99623.41
2022-08-10T05:12:34.521Z,99629.88
2022-08-10T05:15:06.610Z,99631.38
2022-08-10T05:17:35.466Z,99628.03
2022-08-10T05:20:06.957Z,99624.59
2022-08-10T05:22:37.206Z,99625.72
2022-08-10T05:25:05.761Z,99622.47
2022-08-10T05:27:33.980Z,99622.38
2022-08-10T05:30:03.118Z,99616.78
2022-08-10T05:32:32.484Z,99611.03
2022-08-10T05:35:21.309Z,99620.16
2022-08-10T05:38:12.263Z,99615.53
2022-08-10T05:40:47.492Z,99617.19
2022-08-10T05:43:19.190Z,99614.00
2022-08-10T05:46:17.571Z,99614.41
2022-08-10T05:48:41.732Z,99615.34
2022-08-10T05:51:25.630Z,99611.06
2022-08-10T05:54:02.116Z,99609.53
2022-08-10T05:56:54.727Z,99623.78
2022-08-10T06:00:33.320Z,99604.56
2022-08-10T06:02:44.965Z,99610.28
2022-08-10T06:05:14.806Z,99608.31
2022-08-10T06:07:48.802Z,99611.63
2022-08-10T06:10:31.257Z,99604.19
2022-08-10T06:13:30.616Z,99610.22
2022-08-10T06:16:05.604Z,99614.09
2022-08-10T06:18:33.136Z,99614.38
2022-08-10T06:21:01.041Z,99611.94
2022-08-10T06:23:32.365Z,99616.59
2022-08-10T06:26:11.092Z,99615.56
2022-08-10T06:28:54.073Z,99615.47
2022-08-10T06:31:35.774Z,99616.41
2022-08-10T06:34:22.840Z,99614.84
2022-08-10T06:36:50.544Z,99615.13
2022-08-10T06:39:32.913Z,99622.69
2022-08-10T06:42:16.184Z,99616.59
2022-08-10T06:44:54.462Z,99607.63
2022-08-10T06:47:26.719Z,99612.69
2022-08-10T06:50:00.042Z,99608.81
2022-08-10T06:52:32.907Z,99614.16
2022-08-10T06:55:05.337Z,99614.59
2022-08-10T06:57:37.359Z,99618.00
2022-08-10T07:00:06.194Z,99609.38
2022-08-10T07:02:41.468Z,99613.00
2022-08-10T07:05:14.359Z,99612.13
2022-08-10T07:07:43.859Z,99609.97
2022-08-10T07:10:16.334Z,99615.44
2022-08-10T07:12:45.018Z,99608.06
2022-08-10T07:15:15.292Z,99611.84
2022-08-10T07:17:42.490Z,99604.22
2022-08-10T07:20:10.834Z,99611.66
2022-08-10T07:23:27.155Z,99602.28
2022-08-10T07:25:29.259Z,99603.88
2022-08-10T07:28:01.533Z,99604.56
2022-08-10T07:30:38.317Z,99602.81
2022-08-10T07:33:07.374Z,99605.66
2022-08-10T07:35:42.280Z,99607.84
2022-08-10T07:38:17.336Z,99604.25
2022-08-10T07:40:45.350Z,99610.16
2022-08-10T07:43:12.975Z,99604.47
2022-08-10T07:45:40.355Z,99603.00
2022-08-10T07:48:11.939Z,99603.50
2022-08-10T07:50:40.892Z,99613.81
2022-08-10T07:53:12.954Z,99599.25
2022-08-10T07:56:02.266Z,99596.81
2022-08-10T07:58:36.989Z,99604.94
2022-08-10T08:01:04.079Z,99603.84
2022-08-10T08:03:33.067Z,99602.72
2022-08-10T08:06:03.221Z,99596.44
2022-08-10T08:08:35.423Z,99605.16
2022-08-10T08:11:05.608Z,99596.47
2022-08-10T08:13:34.051Z,99601.13
2022-08-10T08:16:20.482Z,99595.50
2022-08-10T08:19:04.071Z,99594.53
2022-08-10T08:24:04.825Z,99590.88
2022-08-10T08:24:33.555Z,99590.84
2022-08-10T08:27:03.175Z,99587.97
2022-08-10T08:29:34.473Z,99585.28
2022-08-10T08:32:03.839Z,99588.78
2022-08-10T08:34:39.014Z,99569.75
2022-08-10T08:37:09.095Z,99578.75
2022-08-10T08:39:37.383Z,99571.94
2022-08-10T08:42:27.731Z,99567.19
2022-08-10T08:45:06.894Z,99568.63
2022-08-10T08:48:03.640Z,99564.44
2022-08-10T08:51:08.624Z,99558.88
2022-08-10T08:54:04.079Z,99563.41
2022-08-10T08:56:49.558Z,99568.50
2022-08-10T08:59:52.262Z,99563.09
2022-08-10T09:02:31.301Z,99551.44
2022-08-10T09:05:16.667Z,99556.63
2022-08-10T09:08:10.578Z,99554.38
2022-08-10T09:11:13.730Z,99558.69
2022-08-10T09:13:53.432Z,99544.84
2022-08-10T09:16:44.668Z,99557.06
2022-08-10T09:19:35.347Z,99549.00
2022-08-10T09:22:26.180Z,99551.09
2022-08-10T09:25:08.223Z,99546.50
2022-08-10T09:27:49.343Z,99543.66
2022-08-10T09:30:29.584Z,99544.56
2022-08-10T09:36:20.691Z,99529.00
2022-08-10T09:36:35.438Z,99532.84
2022-08-10T09:40:06.691Z,99531.31
2022-08-10T09:42:34.804Z,99530.66
2022-08-10T09:45:35.858Z,99529.13
2022-08-10T09:48:30.621Z,99523.06
2022-08-10T09:51:45.953Z,99516.53
2022-08-10T09:54:28.491Z,99517.31
2022-08-10T09:57:44.444Z,99504.72
2022-08-10T10:00:15.601Z,99509.38
2022-08-10T10:02:49.374Z,99505.81
2022-08-10T10:05:33.084Z,99502.59
2022-08-10T10:08:44.726Z,99509.53
2022-08-10T10:11:24.002Z,99500.25
2022-08-10T10:14:12.769Z,99508.97
2022-08-10T10:16:44.253Z,99501.81
2022-08-10T10:19:24.688Z,99494.78
2022-08-10T10:22:24.167Z,99485.47
2022-08-10T10:24:59.698Z,99488.69
2022-08-10T10:27:40.707Z,99491.53
2022-08-10T10:30:12.427Z,99486.84
2022-08-10T10:32:59.345Z,99492.22
2022-08-10T10:35:36.995Z,99489.88
2022-08-10T10:38:08.970Z,99493.22
2022-08-10T10:40:45.630Z,99494.34
2022-08-10T10:43:29.683Z,99483.91
2022-08-10T10:46:23.452Z,99480.69
2022-08-10T10:49:20.866Z,99490.13
2022-08-10T10:52:26.519Z,99485.28
2022-08-10T10:55:12.428Z,99475.84
2022-08-10T10:58:07.342Z,99472.06
2022-08-10T11:00:46.345Z,99462.38
2022-08-10T11:03:13.184Z,99460.19
2022-08-10T11:05:49.494Z,99453.88
2022-08-10T11:08:47.152Z,99461.72
2022-08-10T11:12:00.225Z,99446.56
2022-08-10T11:14:29.104Z,99459.28
2022-08-10T11:17:18.041Z,99464.53
2022-08-10T11:20:04.166Z,99465.69
2022-08-10T11:22:50.356Z,99460.66
2022-08-10T11:25:33.009Z,99460.69
2022-08-10T11:28:21.723Z,99459.75
2022-08-10T11:30:57.467Z,99461.97
2022-08-10T11:33:32.851Z,99477.13
2022-08-10T11:36:20.930Z,99477.88
2022-08-10T11:39:14.910Z,99473.63
2022-08-10T11:42:10.196Z,99487.75
2022-08-10T11:44:40.556Z,99473.19
2022-08-10T11:47:34.477Z,99466.66
2022-08-10T11:50:16.889Z,99475.84
2022-08-10T11:53:02.252Z,99469.13
2022-08-10T11:55:32.825Z,99466.81
2022-08-10T11:58:29.975Z,99461.69
2022-08-10T12:01:04.126Z,99462.44
2022-08-10T12:03:38.093Z,99460.59
2022-08-10T12:06:12.221Z,99447.88
2022-08-10T12:10:04.240Z,99446.25
2022-08-10T12:11:29.854Z,99453.91
2022-08-10T12:14:20.208Z,99444.78
2022-08-10T12:16:51.073Z,99441.69
2022-08-10T12:20:01.639Z,99437.91
2022-08-10T12:22:47.487Z,99442.88
2022-08-10T12:25:56.986Z,99444.38
2022-08-10T12:28:29.095Z,99442.31
2022-08-10T12:31:13.538Z,99439.84
2022-08-10T12:34:02.307Z,99430.66
2022-08-10T12:36:39.971Z,99428.63
2022-08-10T12:39:15.476Z,99430.78
2022-08-10T12:41:50.044Z,99434.63
2022-08-10T12:44:42.110Z,99421.63
2022-08-10T12:47:27.651Z,99420.81
2022-08-10T12:50:31.067Z,99413.44
2022-08-10T12:53:28.345Z,99406.41
2022-08-10T12:55:56.849Z,99403.59
2022-08-10T12:58:59.615Z,99398.00
2022-08-10T13:01:16.493Z,99391.41
2022-08-10T13:04:20.533Z,99389.25
2022-08-10T13:06:46.455Z,99372.97
2022-08-10T13:09:14.784Z,99384.22
2022-08-10T13:12:35.624Z,99383.88
2022-08-10T13:14:58.232Z,99384.94
2022-08-10T13:17:39.032Z,99388.19
2022-08-10T13:20:30.016Z,99399.41
2022-08-10T13:23:01.336Z,99389.94
2022-08-10T13:25:36.355Z,99381.69
2022-08-10T13:28:34.872Z,99383.81
2022-08-10T13:30:56.599Z,99394.84
2022-08-10T13:34:41.246Z,99387.13
2022-08-10T13:36:15.608Z,99396.53
2022-08-10T13:38:45.728Z,99394.81
2022-08-10T13:41:12.793Z,99392.91
2022-08-10T13:43:50.804Z,99385.28
2022-08-10T13:46:22.726Z,99386.28
2022-08-10T13:48:54.035Z,99372.34
2022-08-10T13:51:54.092Z,99378.03
2022-08-10T13:54:14.490Z,99380.66
2022-08-10T13:56:50.748Z,99376.31
2022-08-10T13:59:19.084Z,99381.72
2022-08-10T14:01:50.629Z,99387.16
2022-08-10T14:04:18.959Z,99383.84
2022-08-10T14:06:55.584Z,99384.78
2022-08-10T14:09:31.337Z,99391.88
2022-08-10T14:11:59.441Z,99388.06
2022-08-10T14:14:29.499Z,99388.63
2022-08-10T14:16:58.638Z,99390.28
2022-08-10T14:19:29.404Z,99390.47
2022-08-10T14:21:57.538Z,99385.34
2022-08-10T14:24:29.417Z,99383.84
2022-08-10T14:27:18.158Z,99381.72
2022-08-10T14:29:53.587Z,99372.78
2022-08-10T14:32:24.073Z,99371.34
2022-08-10T14:36:14.896Z,99363.16
2022-08-10T14:37:47.400Z,99371.38
2022-08-10T14:40:17.997Z,99376.75
2022-08-10T14:42:56.242Z,99375.22
2022-08-10T14:45:24.559Z,99367.50
2022-08-10T14:48:03.549Z,99364.53
2022-08-10T14:50:33.508Z,99364.69
2022-08-10T14:53:09.749Z,99367.63
2022-08-10T14:55:58.911Z,99362.34
2022-08-10T14:58:31.453Z,99370.94
2022-08-10T15:01:00.027Z,99361.06
2022-08-10T15:04:00.740Z,99358.56
2022-08-10T15:06:30.245Z,99355.84
2022-08-10T15:09:19.225Z,99353.81
2022-08-10T15:12:14.304Z,99355.59
2022-08-10T15:14:45.060Z,99352.13
2022-08-10T15:17:23.670Z,99346.28
2022-08-10T15:20:02.162Z,99346.47
2022-08-10T15:22:37.934Z,99342.44
2022-08-10T15:25:17.697Z,99343.66
2022-08-10T15:27:54.285Z,99338.19
2022-08-10T15:30:31.032Z,99338.63
2022-08-10T15:33:57.579Z,99334.06
2022-08-10T15:36:35.251Z,99335.88
2022-08-10T15:39:16.528Z,99334.50
2022-08-10T15:42:02.835Z,99336.84
2022-08-10T15:44:44.672Z,99333.03
2022-08-10T15:47:23.341Z,99332.44
2022-08-10T15:50:22.761Z,99340.72
2022-08-10T15:53:15.818Z,99341.13
2022-08-10T15:55:59.425Z,99342.00
2022-08-10T15:58:40.184Z,99341.06
2022-08-10T16:02:13.768Z,99336.50
2022-08-10T16:04:19.531Z,99348.84
2022-08-10T16:07:09.595Z,99346.88
2022-08-10T16:10:23.156Z,99344.41
2022-08-10T16:12:42.506Z,99352.44
2022-08-10T16:15:15.532Z,99354.72
2022-08-10T16:17:56.150Z,99351.94
2022-08-10T16:20:54.742Z,99355.38
2022-08-10T16:23:43.589Z,99356.72
2022-08-10T16:26:17.449Z,99356.47
2022-08-10T16:28:57.900Z,99356.66
2022-08-10T16:31:27.737Z,99358.06
2022-08-10T16:33:58.464Z,99353.41
2022-08-10T16:36:54.199Z,99342.69
2022-08-10T16:39:58.555Z,99351.59
2022-08-10T16:42:29.260Z,99355.31
2022-08-10T16:45:05.365Z,99350.06
2022-08-10T16:47:44.397Z,99349.91
2022-08-10T16:50:15.526Z,99352.44
2022-08-10T16:52:44.989Z,99349.31
2022-08-10T16:55:24.250Z,99339.16
2022-08-10T16:58:08.665Z,99334.34
2022-08-10T17:00:36.727Z,99341.28
2022-08-10T17:03:22.677Z,99352.88
2022-08-10T17:06:03.658Z,99365.78
2022-08-10T17:08:48.064Z,99364.75
2022-08-10T17:11:17.497Z,99372.47
2022-08-10T17:13:44.950Z,99371.19
2022-08-10T17:16:14.636Z,99370.19
2022-08-10T17:18:46.663Z,99365.38
2022-08-10T17:21:20.374Z,99359.63
2022-08-10T17:23:51.617Z,99366.41
2022-08-10T17:26:35.213Z,99368.50
2022-08-10T17:29:17.079Z,99367.88
2022-08-10T17:32:01.182Z,99362.44
2022-08-10T17:34:33.339Z,99367.38
2022-08-10T17:37:04.163Z,99369.63
2022-08-10T17:39:41.089Z,99370.44
2022-08-10T17:42:09.447Z,99375.00
2022-08-10T17:44:39.075Z,99379.72
2022-08-10T17:47:10.934Z,99380.69
2022-08-10T17:49:39.832Z,99371.56
2022-08-10T17:52:10.335Z,99377.56
2022-08-10T17:54:44.487Z,99381.88
2022-08-10T17:57:18.561Z,99387.19
2022-08-10T17:59:47.001Z,99393.44
2022-08-10T18:02:20.047Z,99406.50
2022-08-10T18:05:09.507Z,99407.53
2022-08-10T18:07:40.560Z,99405.06
2022-08-10T18:10:10.084Z,99405.59
2022-08-10T18:12:49.423Z,99398.44
2022-08-10T18:15:19.797Z,99415.13
2022-08-10T18:17:51.077Z,99422.59
2022-08-10T18:20:28.155Z,99421.63
2022-08-10T18:22:57.312Z,99428.72
2022-08-10T18:25:30.191Z,99429.44
2022-08-10T18:28:04.413Z,99428.41
2022-08-10T18:30:45.664Z,99407.97
2022-08-10T18:33:14.264Z,99411.94
2022-08-10T18:35:43.959Z,99414.13
2022-08-10T18:38:13.375Z,99417.97
2022-08-10T18:40:42.821Z,99417.69
2022-08-10T18:44:06.857Z,99421.91
2022-08-10T18:46:00.887Z,99415.34
2022-08-10T18:48:37.552Z,99417.69
2022-08-10T18:51:06.617Z,99415.22
2022-08-10T18:53:37.450Z,99418.38
2022-08-10T18:56:22.584Z,99423.66
2022-08-10T18:59:35.932Z,99437.78
2022-08-10T19:02:08.673Z,99440.50
2022-08-10T19:05:00.348Z,99443.06
2022-08-10T19:07:45.759Z,99441.25
2022-08-10T19:10:37.833Z,99442.75
2022-08-10T19:13:17.940Z,99438.78
2022-08-10T19:16:03.787Z,99442.75
2022-08-10T19:18:34.464Z,99446.91
2022-08-10T19:21:27.151Z,99450.31
2022-08-10T19:24:15.120Z,99446.59
2022-08-10T19:26:57.271Z,99445.50
2022-08-10T19:30:10.182Z,99447.28
2022-08-10T19:32:11.036Z,99447.47
2022-08-10T19:34:37.847Z,99447.59
2022-08-10T19:37:05.193Z,99448.44
2022-08-10T19:39:50.386Z,99455.50
2022-08-10T19:42:30.149Z,99445.94
2022-08-10T19:46:00.650Z,99451.28
2022-08-10T19:48:09.412Z,99445.63
2022-08-10T19:50:56.458Z,99449.03
2022-08-10T19:53:35.512Z,99440.16
2022-08-10T19:56:33.737Z,99431.31
2022-08-10T19:59:07.462Z,99431.41
2022-08-10T20:01:56.269Z,99428.63
2022-08-10T20:04:35.444Z,99430.66
2022-08-10T20:07:14.079Z,99425.22
2022-08-10T20:10:00.342Z,99422.34
2022-08-10T20:13:08.633Z,99422.00
2022-08-10T20:15:42.067Z,99430.34
2022-08-10T20:18:23.697Z,99431.50
2022-08-10T20:21:12.424Z,99428.44
2022-08-10T20:24:05.710Z,99428.09
2022-08-10T20:26:40.952Z,99431.88
2022-08-10T20:29:58.229Z,99427.16
2022-08-10T20:32:18.310Z,99429.56
2022-08-10T20:34:50.267Z,99427.28
2022-08-10T20:38:02.917Z,99431.03
2022-08-10T20:40:29.354Z,99434.78
2022-08-10T20:43:03.633Z,99428.13
2022-08-10T20:46:04.952Z,99428.38
2022-08-10T20:48:48.019Z,99435.63
2022-08-10T20:51:21.246Z,99427.06
2022-08-10T20:53:52.438Z,99432.63
2022-08-10T20:56:42.509Z,99433.97
2022-08-10T21:00:04.406Z,99435.25
2022-08-10T21:02:48.958Z,99433.09
2022-08-10T21:05:40.640Z,99434.00
2022-08-10T21:08:27.880Z,99433.22
2022-08-10T21:11:28.613Z,99438.63
2022-08-10T21:14:27.561Z,99443.41
2022-08-10T21:17:17.750Z,99447.34
2022-08-10T21:20:08.181Z,99440.44
2022-08-10T21:25:42.144Z,99441.41
2022-08-10T21:26:16.245Z,99438.31
2022-08-10T21:29:01.195Z,99437.78
2022-08-10T21:31:41.542Z,99445.03
2022-08-10T21:34:20.152Z,99439.28
2022-08-10T21:37:08.519Z,99438.63
2022-08-10T21:40:06.075Z,99430.28
2022-08-10T21:43:20.563Z,99436.59
2022-08-10T21:46:09.493Z,99433.31
2022-08-10T21:49:01.436Z,99445.00
2022-08-10T21:52:07.902Z,99437.44
2022-08-10T21:55:56.248Z,99443.19
2022-08-10T21:58:55.111Z,99448.06
2022-08-10T22:02:08.478Z,99445.94
2022-08-10T22:04:53.966Z,99442.72
2022-08-10T22:07:40.754Z,99448.25
2022-08-10T22:10:30.273Z,99445.09
2022-08-10T22:13:21.573Z,99441.75
2022-08-10T22:16:13.797Z,99437.47
2022-08-10T22:19:03.743Z,99438.75
2022-08-10T22:22:20.072Z,99439.25
2022-08-10T22:25:34.422Z,99436.03
2022-08-10T22:28:20.080Z,99434.56
2022-08-10T22:31:32.208Z,99431.44
2022-08-10T22:34:33.464Z,99428.16
2022-08-10T22:37:42.473Z,99428.38
2022-08-10T22:40:37.809Z,99433.06
2022-08-10T22:43:36.161Z,99434.94
2022-08-10T22:46:30.519Z,99433.44
2022-08-10T22:49:00.506Z,99432.63
2022-08-10T22:51:36.405Z,99421.31
2022-08-10T22:54:52.269Z,99427.59
2022-08-10T22:57:38.640Z,99423.13
2022-08-10T23:00:15.786Z,99424.16
2022-08-10T23:03:10.256Z,99420.75
2022-08-10T23:05:42.283Z,99419.94
2022-08-10T23:08:30.558Z,99424.44
2022-08-10T23:11:06.485Z,99428.22
2022-08-10T23:13:37.749Z,99426.56
2022-08-10T23:16:32.553Z,99415.22
2022-08-10T23:19:09.884Z,99423.25
2022-08-10T23:22:07.753Z,99421.75
2022-08-10T23:24:43.381Z,99423.44
2022-08-10T23:27:37.330Z,99424.38
2022-08-10T23:30:11.068Z,99414.94
2022-08-10T23:32:47.969Z,99423.00
2022-08-10T23:36:29.691Z,99411.69
2022-08-10T23:38:06.894Z,99413.53
2022-08-10T23:40:36.365Z,99420.81
2022-08-10T23:43:05.043Z,99411.19
2022-08-10T23:45:53.707Z,99419.28
2022-08-10T23:48:30.325Z,99412.28
2022-08-10T23:51:01.403Z,99412.53
2022-08-10T23:53:31.878Z,99420.34
2022-08-10T23:56:25.031Z,99412.47
2022-08-10T23:58:57.160Z,99415.13
